sensor_id;sensor_type;location;lat;lon;timestamp;pressure;altitude;pressure_sealevel;temperature
72236;BMP280;60146;52.498;13.462;2023-05-27T00:00:11;102557.47;;;14.15
72236;BMP280;60146;52.498;13.462;2023-05-27T00:02:39;102565.63;;;14.14
72236;BMP280;60146;52.498;13.462;2023-05-27T00:05:04;102561.41;;;14.08
72236;BMP280;60146;52.498;13.462;2023-05-27T00:07:30;102564.25;;;14.01
72236;BMP280;60146;52.498;13.462;2023-05-27T00:09:56;102562.13;;;13.98
72236;BMP280;60146;52.498;13.462;2023-05-27T00:12:21;102557.66;;;13.99
72236;BMP280;60146;52.498;13.462;2023-05-27T00:14:47;102563.47;;;14.01
72236;BMP280;60146;52.498;13.462;2023-05-27T00:17:12;102567.69;;;13.97
72236;BMP280;60146;52.498;13.462;2023-05-27T00:19:42;102563.44;;;13.96
72236;BMP280;60146;52.498;13.462;2023-05-27T00:22:10;102550.25;;;13.91
72236;BMP280;60146;52.498;13.462;2023-05-27T00:24:35;102565.28;;;13.91
72236;BMP280;60146;52.498;13.462;2023-05-27T00:27:07;102563.38;;;13.86
72236;BMP280;60146;52.498;13.462;2023-05-27T00:29:33;102566.56;;;13.88
72236;BMP280;60146;52.498;13.462;2023-05-27T00:32:02;102557.31;;;13.86
72236;BMP280;60146;52.498;13.462;2023-05-27T00:34:28;102563.91;;;13.83
72236;BMP280;60146;52.498;13.462;2023-05-27T00:36:54;102565.19;;;13.81
72236;BMP280;60146;52.498;13.462;2023-05-27T00:39:19;102567.31;;;13.79
72236;BMP280;60146;52.498;13.462;2023-05-27T00:41:48;102557.00;;;13.77
72236;BMP280;60146;52.498;13.462;2023-05-27T00:44:14;102569.38;;;13.77
72236;BMP280;60146;52.498;13.462;2023-05-27T00:46:39;102569.63;;;13.76
72236;BMP280;60146;52.498;13.462;2023-05-27T00:49:05;102567.78;;;13.71
72236;BMP280;60146;52.498;13.462;2023-05-27T00:51:30;102558.56;;;13.74
72236;BMP280;60146;52.498;13.462;2023-05-27T00:53:56;102562.47;;;13.66
72236;BMP280;60146;52.498;13.462;2023-05-27T00:56:22;102567.72;;;13.66
72236;BMP280;60146;52.498;13.462;2023-05-27T00:58:47;102569.31;;;13.67
72236;BMP280;60146;52.498;13.462;2023-05-27T01:01:12;102561.41;;;13.67
72236;BMP280;60146;52.498;13.462;2023-05-27T01:03:38;102563.50;;;13.60
72236;BMP280;60146;52.498;13.462;2023-05-27T01:06:28;102568.19;;;13.54
72236;BMP280;60146;52.498;13.462;2023-05-27T01:09:03;102554.47;;;13.52
72236;BMP280;60146;52.498;13.462;2023-05-27T01:11:37;102559.44;;;13.48
72236;BMP280;60146;52.498;13.462;2023-05-27T01:14:09;102556.78;;;13.48
72236;BMP280;60146;52.498;13.462;2023-05-27T01:16:37;102563.09;;;13.47
72236;BMP280;60146;52.498;13.462;2023-05-27T01:19:07;102560.47;;;13.42
72236;BMP280;60146;52.498;13.462;2023-05-27T01:21:37;102557.53;;;13.39
72236;BMP280;60146;52.498;13.462;2023-05-27T01:24:04;102559.63;;;13.37
72236;BMP280;60146;52.498;13.462;2023-05-27T01:26:30;102556.19;;;13.37
72236;BMP280;60146;52.498;13.462;2023-05-27T01:28:56;102564.69;;;13.48
72236;BMP280;60146;52.498;13.462;2023-05-27T01:32:01;102558.31;;;13.39
72236;BMP280;60146;52.498;13.462;2023-05-27T01:34:59;102556.69;;;13.34
72236;BMP280;60146;52.498;13.462;2023-05-27T01:37:22;102555.31;;;13.26
72236;BMP280;60146;52.498;13.462;2023-05-27T01:39:50;102551.66;;;13.27
72236;BMP280;60146;52.498;13.462;2023-05-27T01:42:15;102544.25;;;13.24
72236;BMP280;60146;52.498;13.462;2023-05-27T01:44:42;102545.53;;;13.22
72236;BMP280;60146;52.498;13.462;2023-05-27T01:47:07;102546.00;;;13.14
72236;BMP280;60146;52.498;13.462;2023-05-27T01:49:32;102549.91;;;13.12
72236;BMP280;60146;52.498;13.462;2023-05-27T01:51:58;102549.34;;;13.10
72236;BMP280;60146;52.498;13.462;2023-05-27T01:54:23;102541.72;;;13.08
72236;BMP280;60146;52.498;13.462;2023-05-27T01:56:49;102537.25;;;13.09
72236;BMP280;60146;52.498;13.462;2023-05-27T01:59:14;102533.28;;;13.06
72236;BMP280;60146;52.498;13.462;2023-05-27T02:01:39;102534.88;;;13.07
72236;BMP280;60146;52.498;13.462;2023-05-27T02:04:06;102544.84;;;13.05
72236;BMP280;60146;52.498;13.462;2023-05-27T02:06:31;102542.72;;;13.02
72236;BMP280;60146;52.498;13.462;2023-05-27T02:08:57;102539.28;;;13.02
72236;BMP280;60146;52.498;13.462;2023-05-27T02:11:22;102541.63;;;12.98
72236;BMP280;60146;52.498;13.462;2023-05-27T02:13:48;102538.50;;;13.01
72236;BMP280;60146;52.498;13.462;2023-05-27T02:16:14;102535.28;;;12.95
72236;BMP280;60146;52.498;13.462;2023-05-27T02:18:40;102535.75;;;12.92
72236;BMP280;60146;52.498;13.462;2023-05-27T02:21:06;102534.50;;;12.94
72236;BMP280;60146;52.498;13.462;2023-05-27T02:23:32;102537.88;;;12.90
72236;BMP280;60146;52.498;13.462;2023-05-27T02:25:57;102533.41;;;12.90
72236;BMP280;60146;52.498;13.462;2023-05-27T02:28:23;102542.34;;;12.89
72236;BMP280;60146;52.498;13.462;2023-05-27T02:30:48;102531.78;;;12.84
72236;BMP280;60146;52.498;13.462;2023-05-27T02:33:14;102539.34;;;12.81
72236;BMP280;60146;52.498;13.462;2023-05-27T02:35:39;102541.44;;;12.79
72236;BMP280;60146;52.498;13.462;2023-05-27T02:38:05;102543.53;;;12.77
72236;BMP280;60146;52.498;13.462;2023-05-27T02:40:30;102539.31;;;12.76
72236;BMP280;60146;52.498;13.462;2023-05-27T02:42:56;102541.44;;;12.79
72236;BMP280;60146;52.498;13.462;2023-05-27T02:45:21;102541.59;;;12.73
72236;BMP280;60146;52.498;13.462;2023-05-27T02:47:48;102546.59;;;12.69
72236;BMP280;60146;52.498;13.462;2023-05-27T02:50:13;102548.19;;;12.70
72236;BMP280;60146;52.498;13.462;2023-05-27T02:52:39;102541.34;;;12.69
72236;BMP280;60146;52.498;13.462;2023-05-27T02:55:05;102544.53;;;12.71
72236;BMP280;60146;52.498;13.462;2023-05-27T02:57:30;102544.75;;;12.70
72236;BMP280;60146;52.498;13.462;2023-05-27T02:59:56;102551.31;;;12.67
72236;BMP280;60146;52.498;13.462;2023-05-27T03:02:21;102546.31;;;12.66
72236;BMP280;60146;52.498;13.462;2023-05-27T03:04:47;102556.84;;;12.66
72236;BMP280;60146;52.498;13.462;2023-05-27T03:07:13;102553.31;;;12.60
72236;BMP280;60146;52.498;13.462;2023-05-27T03:09:38;102550.69;;;12.60
72236;BMP280;60146;52.498;13.462;2023-05-27T03:12:04;102556.72;;;12.56
72236;BMP280;60146;52.498;13.462;2023-05-27T03:14:30;102547.00;;;12.57
72236;BMP280;60146;52.498;13.462;2023-05-27T03:16:55;102549.03;;;12.55
72236;BMP280;60146;52.498;13.462;2023-05-27T03:19:21;102549.84;;;12.55
72236;BMP280;60146;52.498;13.462;2023-05-27T03:21:46;102551.78;;;12.59
72236;BMP280;60146;52.498;13.462;2023-05-27T03:24:12;102552.84;;;12.63
72236;BMP280;60146;52.498;13.462;2023-05-27T03:26:38;102543.09;;;12.64
72236;BMP280;60146;52.498;13.462;2023-05-27T03:29:03;102543.41;;;12.67
72236;BMP280;60146;52.498;13.462;2023-05-27T03:31:29;102549.78;;;12.71
72236;BMP280;60146;52.498;13.462;2023-05-27T03:33:54;102545.63;;;12.75
72236;BMP280;60146;52.498;13.462;2023-05-27T03:36:20;102548.47;;;12.74
72236;BMP280;60146;52.498;13.462;2023-05-27T03:38:46;102556.94;;;12.76
72236;BMP280;60146;52.498;13.462;2023-05-27T03:41:11;102555.03;;;12.71
72236;BMP280;60146;52.498;13.462;2023-05-27T03:43:37;102557.22;;;12.79
72236;BMP280;60146;52.498;13.462;2023-05-27T03:46:02;102556.69;;;12.77
72236;BMP280;60146;52.498;13.462;2023-05-27T03:48:27;102553.72;;;12.74
72236;BMP280;60146;52.498;13.462;2023-05-27T03:50:53;102549.59;;;12.77
72236;BMP280;60146;52.498;13.462;2023-05-27T03:53:19;102562.00;;;12.82
72236;BMP280;60146;52.498;13.462;2023-05-27T03:55:44;102553.66;;;12.90
72236;BMP280;60146;52.498;13.462;2023-05-27T03:58:10;102562.06;;;12.92
72236;BMP280;60146;52.498;13.462;2023-05-27T04:00:39;102554.50;;;12.95
72236;BMP280;60146;52.498;13.462;2023-05-27T04:03:06;102566.91;;;12.99
72236;BMP280;60146;52.498;13.462;2023-05-27T04:05:32;102564.59;;;13.03
72236;BMP280;60146;52.498;13.462;2023-05-27T04:07:57;102561.69;;;13.04
72236;BMP280;60146;52.498;13.462;2023-05-27T04:10:23;102567.50;;;13.06
72236;BMP280;60146;52.498;13.462;2023-05-27T04:12:48;102562.78;;;13.08
72236;BMP280;60146;52.498;13.462;2023-05-27T04:15:13;102565.16;;;13.10
72236;BMP280;60146;52.498;13.462;2023-05-27T04:17:39;102570.50;;;13.15
72236;BMP280;60146;52.498;13.462;2023-05-27T04:20:05;102567.16;;;13.24
72236;BMP280;60146;52.498;13.462;2023-05-27T04:22:39;102569.28;;;13.27
72236;BMP280;60146;52.498;13.462;2023-05-27T04:25:05;102566.19;;;13.35
72236;BMP280;60146;52.498;13.462;2023-05-27T04:27:31;102579.88;;;13.37
72236;BMP280;60146;52.498;13.462;2023-05-27T04:29:56;102582.59;;;13.46
72236;BMP280;60146;52.498;13.462;2023-05-27T04:32:21;102580.03;;;13.51
72236;BMP280;60146;52.498;13.462;2023-05-27T04:34:47;102573.47;;;13.58
72236;BMP280;60146;52.498;13.462;2023-05-27T04:37:14;102584.84;;;13.64
72236;BMP280;60146;52.498;13.462;2023-05-27T04:39:41;102578.28;;;13.66
72236;BMP280;60146;52.498;13.462;2023-05-27T04:42:10;102571.75;;;13.74
72236;BMP280;60146;52.498;13.462;2023-05-27T04:44:37;102575.97;;;13.75
72236;BMP280;60146;52.498;13.462;2023-05-27T04:47:04;102579.75;;;13.88
72236;BMP280;60146;52.498;13.462;2023-05-27T04:49:30;102572.44;;;14.05
72236;BMP280;60146;52.498;13.462;2023-05-27T04:51:55;102570.84;;;14.04
72236;BMP280;60146;52.498;13.462;2023-05-27T04:54:21;102580.16;;;14.16
72236;BMP280;60146;52.498;13.462;2023-05-27T04:56:46;102569.09;;;14.19
72236;BMP280;60146;52.498;13.462;2023-05-27T04:59:12;102574.16;;;14.25
72236;BMP280;60146;52.498;13.462;2023-05-27T05:01:42;102566.00;;;14.32
72236;BMP280;60146;52.498;13.462;2023-05-27T05:04:26;102570.22;;;14.37
72236;BMP280;60146;52.498;13.462;2023-05-27T05:06:51;102567.34;;;14.49
72236;BMP280;60146;52.498;13.462;2023-05-27T05:09:17;102559.47;;;14.58
72236;BMP280;60146;52.498;13.462;2023-05-27T05:11:43;102558.94;;;14.61
72236;BMP280;60146;52.498;13.462;2023-05-27T05:14:08;102549.75;;;14.78
72236;BMP280;60146;52.498;13.462;2023-05-27T05:16:33;102557.41;;;14.80
72236;BMP280;60146;52.498;13.462;2023-05-27T05:18:59;102558.72;;;14.92
72236;BMP280;60146;52.498;13.462;2023-05-27T05:21:24;102566.38;;;14.98
72236;BMP280;60146;52.498;13.462;2023-05-27T05:23:49;102557.97;;;15.11
72236;BMP280;60146;52.498;13.462;2023-05-27T05:26:14;102552.13;;;15.09
72236;BMP280;60146;52.498;13.462;2023-05-27T05:28:40;102555.06;;;15.17
72236;BMP280;60146;52.498;13.462;2023-05-27T05:31:05;102562.44;;;15.25
72236;BMP280;60146;52.498;13.462;2023-05-27T05:33:30;102564.81;;;15.27
72236;BMP280;60146;52.498;13.462;2023-05-27T05:35:56;102561.09;;;15.37
72236;BMP280;60146;52.498;13.462;2023-05-27T05:38:21;102566.91;;;15.39
72236;BMP280;60146;52.498;13.462;2023-05-27T05:40:47;102565.31;;;15.53
72236;BMP280;60146;52.498;13.462;2023-05-27T05:43:15;102569.03;;;15.52
72236;BMP280;60146;52.498;13.462;2023-05-27T05:45:40;102571.91;;;15.60
72236;BMP280;60146;52.498;13.462;2023-05-27T05:48:06;102570.63;;;15.53
72236;BMP280;60146;52.498;13.462;2023-05-27T05:50:31;102567.94;;;15.63
72236;BMP280;60146;52.498;13.462;2023-05-27T05:52:57;102569.78;;;15.72
72236;BMP280;60146;52.498;13.462;2023-05-27T05:55:23;102573.66;;;15.94
72236;BMP280;60146;52.498;13.462;2023-05-27T05:57:48;102566.75;;;16.03
72236;BMP280;60146;52.498;13.462;2023-05-27T06:00:14;102567.78;;;16.11
72236;BMP280;60146;52.498;13.462;2023-05-27T06:02:40;102563.03;;;16.13
72236;BMP280;60146;52.498;13.462;2023-05-27T06:05:05;102557.38;;;16.30
72236;BMP280;60146;52.498;13.462;2023-05-27T06:07:31;102557.88;;;16.36
72236;BMP280;60146;52.498;13.462;2023-05-27T06:09:56;102565.75;;;16.46
72236;BMP280;60146;52.498;13.462;2023-05-27T06:12:21;102560.72;;;16.49
72236;BMP280;60146;52.498;13.462;2023-05-27T06:14:47;102558.06;;;16.49
72236;BMP280;60146;52.498;13.462;2023-05-27T06:17:12;102565.97;;;16.54
72236;BMP280;60146;52.498;13.462;2023-05-27T06:19:38;102566.94;;;16.68
72236;BMP280;60146;52.498;13.462;2023-05-27T06:22:03;102566.31;;;16.81
72236;BMP280;60146;52.498;13.462;2023-05-27T06:24:30;102563.53;;;16.95
72236;BMP280;60146;52.498;13.462;2023-05-27T06:26:56;102568.91;;;16.90
72236;BMP280;60146;52.498;13.462;2023-05-27T06:29:21;102567.34;;;16.85
72236;BMP280;60146;52.498;13.462;2023-05-27T06:31:46;102567.03;;;16.91
72236;BMP280;60146;52.498;13.462;2023-05-27T06:34:13;102566.25;;;16.90
72236;BMP280;60146;52.498;13.462;2023-05-27T06:36:39;102566.78;;;16.92
72236;BMP280;60146;52.498;13.462;2023-05-27T06:39:04;102569.97;;;16.89
72236;BMP280;60146;52.498;13.462;2023-05-27T06:41:29;102566.78;;;16.88
72236;BMP280;60146;52.498;13.462;2023-05-27T06:43:55;102571.81;;;16.89
72236;BMP280;60146;52.498;13.462;2023-05-27T06:46:20;102567.22;;;16.99
72236;BMP280;60146;52.498;13.462;2023-05-27T06:48:46;102571.09;;;17.06
72236;BMP280;60146;52.498;13.462;2023-05-27T06:51:11;102569.72;;;17.19
72236;BMP280;60146;52.498;13.462;2023-05-27T06:53:37;102569.31;;;17.30
72236;BMP280;60146;52.498;13.462;2023-05-27T06:56:02;102567.97;;;17.32
72236;BMP280;60146;52.498;13.462;2023-05-27T06:58:28;102578.56;;;17.37
72236;BMP280;60146;52.498;13.462;2023-05-27T07:00:53;102572.13;;;17.43
72236;BMP280;60146;52.498;13.462;2023-05-27T07:03:18;102570.44;;;17.52
72236;BMP280;60146;52.498;13.462;2023-05-27T07:05:43;102565.56;;;17.59
72236;BMP280;60146;52.498;13.462;2023-05-27T07:08:09;102566.09;;;17.61
72236;BMP280;60146;52.498;13.462;2023-05-27T07:10:34;102573.47;;;17.63
72236;BMP280;60146;52.498;13.462;2023-05-27T07:13:00;102568.41;;;17.67
72236;BMP280;60146;52.498;13.462;2023-05-27T07:15:25;102571.44;;;17.79
72236;BMP280;60146;52.498;13.462;2023-05-27T07:17:52;102567.25;;;17.96
72236;BMP280;60146;52.498;13.462;2023-05-27T07:20:17;102566.66;;;17.99
72236;BMP280;60146;52.498;13.462;2023-05-27T07:22:43;102565.03;;;18.02
72236;BMP280;60146;52.498;13.462;2023-05-27T07:25:08;102556.00;;;18.03
72236;BMP280;60146;52.498;13.462;2023-05-27T07:27:34;102556.41;;;18.15
72236;BMP280;60146;52.498;13.462;2023-05-27T07:29:59;102549.13;;;18.21
72236;BMP280;60146;52.498;13.462;2023-05-27T07:32:25;102551.09;;;18.15
72236;BMP280;60146;52.498;13.462;2023-05-27T07:34:50;102553.00;;;18.28
72236;BMP280;60146;52.498;13.462;2023-05-27T07:37:15;102556.75;;;18.27
72236;BMP280;60146;52.498;13.462;2023-05-27T07:39:41;102546.84;;;18.32
72236;BMP280;60146;52.498;13.462;2023-05-27T07:42:06;102550.19;;;18.38
72236;BMP280;60146;52.498;13.462;2023-05-27T07:44:31;102539.22;;;18.44
72236;BMP280;60146;52.498;13.462;2023-05-27T07:46:57;102544.59;;;18.57
72236;BMP280;60146;52.498;13.462;2023-05-27T07:49:24;102549.84;;;18.62
72236;BMP280;60146;52.498;13.462;2023-05-27T07:51:50;102539.81;;;18.72
72236;BMP280;60146;52.498;13.462;2023-05-27T07:54:18;102532.50;;;18.96
72236;BMP280;60146;52.498;13.462;2023-05-27T07:56:44;102537.44;;;19.02
72236;BMP280;60146;52.498;13.462;2023-05-27T07:59:11;102533.31;;;19.22
72236;BMP280;60146;52.498;13.462;2023-05-27T08:01:37;102529.00;;;19.13
72236;BMP280;60146;52.498;13.462;2023-05-27T08:04:02;102520.63;;;19.06
72236;BMP280;60146;52.498;13.462;2023-05-27T08:06:27;102517.06;;;19.24
72236;BMP280;60146;52.498;13.462;2023-05-27T08:08:53;102522.31;;;19.15
72236;BMP280;60146;52.498;13.462;2023-05-27T08:11:18;102514.03;;;19.17
72236;BMP280;60146;52.498;13.462;2023-05-27T08:13:44;102512.03;;;19.22
72236;BMP280;60146;52.498;13.462;2023-05-27T08:16:09;102507.63;;;19.44
72236;BMP280;60146;52.498;13.462;2023-05-27T08:18:36;102514.63;;;19.53
72236;BMP280;60146;52.498;13.462;2023-05-27T08:21:01;102506.91;;;19.65
72236;BMP280;60146;52.498;13.462;2023-05-27T08:23:26;102509.66;;;19.73
72236;BMP280;60146;52.498;13.462;2023-05-27T08:25:52;102502.50;;;19.95
72236;BMP280;60146;52.498;13.462;2023-05-27T08:28:17;102500.09;;;20.07
72236;BMP280;60146;52.498;13.462;2023-05-27T08:30:43;102489.03;;;20.13
72236;BMP280;60146;52.498;13.462;2023-05-27T08:33:08;102493.94;;;20.20
72236;BMP280;60146;52.498;13.462;2023-05-27T08:35:33;102489.06;;;20.43
72236;BMP280;60146;52.498;13.462;2023-05-27T08:37:59;102485.94;;;20.41
72236;BMP280;60146;52.498;13.462;2023-05-27T08:40:24;102480.59;;;20.71
72236;BMP280;60146;52.498;13.462;2023-05-27T08:42:50;102489.50;;;20.88
72236;BMP280;60146;52.498;13.462;2023-05-27T08:45:19;102484.78;;;21.23
72236;BMP280;60146;52.498;13.462;2023-05-27T08:47:44;102478.22;;;22.03
72236;BMP280;60146;52.498;13.462;2023-05-27T08:50:10;102472.72;;;22.61
72236;BMP280;60146;52.498;13.462;2023-05-27T08:52:44;102464.84;;;23.41
72236;BMP280;60146;52.498;13.462;2023-05-27T08:55:11;102468.06;;;23.74
72236;BMP280;60146;52.498;13.462;2023-05-27T08:57:40;102461.19;;;24.52
72236;BMP280;60146;52.498;13.462;2023-05-27T09:00:10;102466.63;;;25.14
72236;BMP280;60146;52.498;13.462;2023-05-27T09:02:39;102461.56;;;25.77
72236;BMP280;60146;52.498;13.462;2023-05-27T09:05:06;102450.78;;;26.34
72236;BMP280;60146;52.498;13.462;2023-05-27T09:07:31;102460.03;;;26.67
72236;BMP280;60146;52.498;13.462;2023-05-27T09:09:57;102456.94;;;27.57
72236;BMP280;60146;52.498;13.462;2023-05-27T09:12:24;102462.88;;;28.57
72236;BMP280;60146;52.498;13.462;2023-05-27T09:14:51;102454.88;;;28.64
72236;BMP280;60146;52.498;13.462;2023-05-27T09:17:16;102456.63;;;28.53
72236;BMP280;60146;52.498;13.462;2023-05-27T09:19:42;102452.09;;;28.85
72236;BMP280;60146;52.498;13.462;2023-05-27T09:22:21;102452.31;;;29.02
72236;BMP280;60146;52.498;13.462;2023-05-27T09:24:47;102455.06;;;29.80
72236;BMP280;60146;52.498;13.462;2023-05-27T09:27:12;102457.63;;;30.09
72236;BMP280;60146;52.498;13.462;2023-05-27T09:29:38;102452.25;;;30.82
72236;BMP280;60146;52.498;13.462;2023-05-27T09:32:06;102447.59;;;30.86
72236;BMP280;60146;52.498;13.462;2023-05-27T09:34:39;102441.16;;;31.31
72236;BMP280;60146;52.498;13.462;2023-05-27T09:37:05;102445.75;;;31.10
72236;BMP280;60146;52.498;13.462;2023-05-27T09:39:39;102451.47;;;30.85
72236;BMP280;60146;52.498;13.462;2023-05-27T09:42:04;102449.69;;;31.50
72236;BMP280;60146;52.498;13.462;2023-05-27T09:44:35;102453.16;;;32.04
72236;BMP280;60146;52.498;13.462;2023-05-27T09:47:04;102445.03;;;31.64
72236;BMP280;60146;52.498;13.462;2023-05-27T09:49:32;102436.81;;;30.99
72236;BMP280;60146;52.498;13.462;2023-05-27T09:51:58;102436.47;;;31.11
72236;BMP280;60146;52.498;13.462;2023-05-27T09:54:24;102441.13;;;31.34
72236;BMP280;60146;52.498;13.462;2023-05-27T09:56:50;102446.53;;;31.34
72236;BMP280;60146;52.498;13.462;2023-05-27T09:59:17;102433.72;;;32.16
72236;BMP280;60146;52.498;13.462;2023-05-27T10:01:45;102426.25;;;32.44
72236;BMP280;60146;52.498;13.462;2023-05-27T10:04:11;102432.63;;;31.87
72236;BMP280;60146;52.498;13.462;2023-05-27T10:06:38;102427.13;;;32.21
72236;BMP280;60146;52.498;13.462;2023-05-27T10:09:06;102424.84;;;32.96
72236;BMP280;60146;52.498;13.462;2023-05-27T10:11:32;102426.69;;;33.02
72236;BMP280;60146;52.498;13.462;2023-05-27T10:14:01;102422.03;;;33.03
72236;BMP280;60146;52.498;13.462;2023-05-27T10:16:27;102420.75;;;33.24
72236;BMP280;60146;52.498;13.462;2023-05-27T10:18:54;102419.91;;;32.74
72236;BMP280;60146;52.498;13.462;2023-05-27T10:21:20;102409.81;;;33.70
72236;BMP280;60146;52.498;13.462;2023-05-27T10:26:36;102408.19;;;34.41
72236;BMP280;60146;52.498;13.462;2023-05-27T10:29:09;102402.53;;;34.54
72236;BMP280;60146;52.498;13.462;2023-05-27T10:31:36;102406.38;;;35.08
72236;BMP280;60146;52.498;13.462;2023-05-27T10:34:05;102399.06;;;35.47
72236;BMP280;60146;52.498;13.462;2023-05-27T10:36:33;102410.22;;;36.81
72236;BMP280;60146;52.498;13.462;2023-05-27T10:39:03;102410.88;;;36.19
72236;BMP280;60146;52.498;13.462;2023-05-27T10:44:05;102402.06;;;37.09
72236;BMP280;60146;52.498;13.462;2023-05-27T10:46:38;102393.53;;;36.91
72236;BMP280;60146;52.498;13.462;2023-05-27T10:49:54;102401.03;;;36.56
72236;BMP280;60146;52.498;13.462;2023-05-27T10:52:05;102385.19;;;37.93
72236;BMP280;60146;52.498;13.462;2023-05-27T10:54:36;102388.63;;;38.66
72236;BMP280;60146;52.498;13.462;2023-05-27T10:57:02;102393.97;;;38.49
72236;BMP280;60146;52.498;13.462;2023-05-27T10:59:53;102386.41;;;38.40
72236;BMP280;60146;52.498;13.462;2023-05-27T11:02:19;102380.72;;;37.43
72236;BMP280;60146;52.498;13.462;2023-05-27T11:04:45;102372.22;;;36.83
72236;BMP280;60146;52.498;13.462;2023-05-27T11:07:11;102373.91;;;37.08
72236;BMP280;60146;52.498;13.462;2023-05-27T11:09:50;102366.25;;;36.72
72236;BMP280;60146;52.498;13.462;2023-05-27T11:12:19;102358.59;;;37.66
72236;BMP280;60146;52.498;13.462;2023-05-27T11:14:53;102364.22;;;38.47
72236;BMP280;60146;52.498;13.462;2023-05-27T11:17:19;102354.88;;;38.90
72236;BMP280;60146;52.498;13.462;2023-05-27T11:19:45;102355.34;;;39.09
72236;BMP280;60146;52.498;13.462;2023-05-27T11:22:11;102345.50;;;38.67
72236;BMP280;60146;52.498;13.462;2023-05-27T11:24:38;102347.84;;;38.44
72236;BMP280;60146;52.498;13.462;2023-05-27T11:27:14;102347.19;;;38.52
72236;BMP280;60146;52.498;13.462;2023-05-27T11:29:47;102342.00;;;38.54
72236;BMP280;60146;52.498;13.462;2023-05-27T11:32:16;102340.84;;;37.94
72236;BMP280;60146;52.498;13.462;2023-05-27T11:34:43;102340.56;;;38.95
72236;BMP280;60146;52.498;13.462;2023-05-27T11:37:10;102339.03;;;37.24
72236;BMP280;60146;52.498;13.462;2023-05-27T11:39:35;102339.00;;;38.04
72236;BMP280;60146;52.498;13.462;2023-05-27T11:42:05;102343.16;;;37.96
72236;BMP280;60146;52.498;13.462;2023-05-27T11:44:31;102335.69;;;37.05
72236;BMP280;60146;52.498;13.462;2023-05-27T11:47:00;102339.03;;;36.34
72236;BMP280;60146;52.498;13.462;2023-05-27T11:49:27;102333.13;;;37.53
72236;BMP280;60146;52.498;13.462;2023-05-27T11:51:55;102330.09;;;37.36
72236;BMP280;60146;52.498;13.462;2023-05-27T11:54:26;102319.53;;;36.79
72236;BMP280;60146;52.498;13.462;2023-05-27T11:56:53;102315.38;;;37.58
72236;BMP280;60146;52.498;13.462;2023-05-27T11:59:26;102311.34;;;37.74
72236;BMP280;60146;52.498;13.462;2023-05-27T12:01:57;102312.72;;;38.84
72236;BMP280;60146;52.498;13.462;2023-05-27T12:04:22;102306.00;;;38.52
72236;BMP280;60146;52.498;13.462;2023-05-27T12:06:48;102300.50;;;37.43
72236;BMP280;60146;52.498;13.462;2023-05-27T12:09:13;102292.25;;;38.19
72236;BMP280;60146;52.498;13.462;2023-05-27T12:11:39;102292.16;;;38.23
72236;BMP280;60146;52.498;13.462;2023-05-27T12:14:05;102297.22;;;37.36
72236;BMP280;60146;52.498;13.462;2023-05-27T12:16:31;102295.69;;;37.87
72236;BMP280;60146;52.498;13.462;2023-05-27T12:18:57;102297.44;;;39.16
72236;BMP280;60146;52.498;13.462;2023-05-27T12:21:23;102290.28;;;38.65
72236;BMP280;60146;52.498;13.462;2023-05-27T12:23:48;102285.41;;;39.22
72236;BMP280;60146;52.498;13.462;2023-05-27T12:26:14;102283.31;;;39.35
72236;BMP280;60146;52.498;13.462;2023-05-27T12:28:41;102283.50;;;40.08
72236;BMP280;60146;52.498;13.462;2023-05-27T12:31:07;102279.50;;;40.09
72236;BMP280;60146;52.498;13.462;2023-05-27T12:33:32;102280.00;;;40.34
72236;BMP280;60146;52.498;13.462;2023-05-27T12:35:58;102269.91;;;40.31
72236;BMP280;60146;52.498;13.462;2023-05-27T12:38:24;102271.44;;;38.54
72236;BMP280;60146;52.498;13.462;2023-05-27T12:40:50;102266.03;;;38.18
72236;BMP280;60146;52.498;13.462;2023-05-27T12:43:17;102268.63;;;38.67
72236;BMP280;60146;52.498;13.462;2023-05-27T12:45:43;102261.91;;;37.77
72236;BMP280;60146;52.498;13.462;2023-05-27T12:48:08;102263.50;;;37.39
72236;BMP280;60146;52.498;13.462;2023-05-27T12:50:33;102250.69;;;37.48
72236;BMP280;60146;52.498;13.462;2023-05-27T12:52:59;102244.44;;;36.37
72236;BMP280;60146;52.498;13.462;2023-05-27T12:55:25;102248.31;;;36.82
72236;BMP280;60146;52.498;13.462;2023-05-27T12:57:52;102238.97;;;36.37
72236;BMP280;60146;52.498;13.462;2023-05-27T13:00:19;102252.13;;;35.01
72236;BMP280;60146;52.498;13.462;2023-05-27T13:02:45;102254.72;;;35.49
72236;BMP280;60146;52.498;13.462;2023-05-27T13:05:15;102243.50;;;35.24
72236;BMP280;60146;52.498;13.462;2023-05-27T13:07:40;102239.97;;;35.96
72236;BMP280;60146;52.498;13.462;2023-05-27T13:10:12;102230.09;;;35.83
72236;BMP280;60146;52.498;13.462;2023-05-27T13:12:43;102218.81;;;36.31
72236;BMP280;60146;52.498;13.462;2023-05-27T13:15:08;102232.03;;;37.43
72236;BMP280;60146;52.498;13.462;2023-05-27T13:17:35;102229.78;;;37.02
72236;BMP280;60146;52.498;13.462;2023-05-27T13:20:01;102221.75;;;36.95
72236;BMP280;60146;52.498;13.462;2023-05-27T13:22:28;102217.47;;;36.94
72236;BMP280;60146;52.498;13.462;2023-05-27T13:24:53;102209.19;;;37.74
72236;BMP280;60146;52.498;13.462;2023-05-27T13:27:19;102206.47;;;36.39
72236;BMP280;60146;52.498;13.462;2023-05-27T13:29:45;102207.72;;;36.07
72236;BMP280;60146;52.498;13.462;2023-05-27T13:32:11;102214.66;;;34.63
72236;BMP280;60146;52.498;13.462;2023-05-27T13:34:36;102214.16;;;35.47
72236;BMP280;60146;52.498;13.462;2023-05-27T13:37:02;102209.41;;;35.51
72236;BMP280;60146;52.498;13.462;2023-05-27T13:39:28;102215.16;;;35.72
72236;BMP280;60146;52.498;13.462;2023-05-27T13:41:53;102207.38;;;35.36
72236;BMP280;60146;52.498;13.462;2023-05-27T13:44:18;102207.09;;;34.93
72236;BMP280;60146;52.498;13.462;2023-05-27T13:46:44;102201.09;;;34.37